createdAt,value
2022-10-11T00:01:15.680Z,97067.48
2022-10-11T00:03:45.568Z,97066.86
2022-10-11T00:06:14.825Z,97067.19
2022-10-11T00:08:44.538Z,97062.75
2022-10-11T00:11:14.256Z,97067.04
2022-10-11T00:13:43.959Z,97063.85
2022-10-11T00:16:15.738Z,97061.65
2022-10-11T00:18:45.828Z,97060.09
2022-10-11T00:21:16.634Z,97062.16
2022-10-11T00:23:46.732Z,97063.65
2022-10-11T00:26:17.199Z,97063.50
2022-10-11T00:28:47.145Z,97057.61
2022-10-11T00:31:17.475Z,97052.13
2022-10-11T00:33:47.642Z,97054.84
2022-10-11T00:36:19.118Z,97052.73
2022-10-11T00:38:49.286Z,97050.79
2022-10-11T00:41:19.694Z,97050.74
2022-10-11T00:44:08.540Z,97054.11
2022-10-11T00:46:39.534Z,97052.41
2022-10-11T00:49:20.967Z,97053.05
2022-10-11T00:51:55.422Z,97058.14
2022-10-11T00:54:28.071Z,97051.02
2022-10-11T00:57:03.646Z,97052.27
2022-10-11T00:59:40.133Z,97048.08
2022-10-11T01:02:10.427Z,97044.33
2022-10-11T01:04:40.734Z,97044.74
2022-10-11T01:07:11.567Z,97039.99
2022-10-11T01:09:41.856Z,97039.41
2022-10-11T01:12:32.299Z,97041.46
2022-10-11T01:15:10.960Z,97039.46
2022-10-11T01:18:00.083Z,97033.16
2022-10-11T01:20:36.511Z,97034.45
2022-10-11T01:23:44.161Z,97032.22
2022-10-11T01:26:28.423Z,97033.03
2022-10-11T01:29:42.614Z,97037.79
2022-10-11T01:32:16.810Z,97036.10
2022-10-11T01:35:04.248Z,97035.89
2022-10-11T01:37:39.437Z,97033.88
2022-10-11T01:40:13.773Z,97029.70
2022-10-11T01:42:44.605Z,97027.50
2022-10-11T01:45:20.955Z,97028.22
2022-10-11T01:48:04.975Z,97026.25
2022-10-11T01:50:55.961Z,97026.05
2022-10-11T01:53:47.076Z,97023.05
2022-10-11T01:56:23.843Z,97021.89
2022-10-11T01:59:31.199Z,97023.20
2022-10-11T02:02:31.916Z,97022.05
2022-10-11T02:05:22.104Z,97025.69
2022-10-11T02:08:21.935Z,97021.90
2022-10-11T02:11:15.016Z,97022.43
2022-10-11T02:14:08.163Z,97014.95
2022-10-11T02:16:46.692Z,97014.32
2022-10-11T02:19:19.525Z,97013.67
2022-10-11T02:21:55.535Z,97013.61
2022-10-11T02:24:35.939Z,97010.48
2022-10-11T02:27:07.108Z,97010.60
2022-10-11T02:29:39.718Z,97007.02
2022-10-11T02:32:11.921Z,97008.85
2022-10-11T02:34:51.512Z,97003.89
2022-10-11T02:37:33.510Z,96998.52
2022-10-11T02:40:16.410Z,96999.05
2022-10-11T02:42:59.897Z,96997.09
2022-10-11T02:45:50.842Z,96997.31
2022-10-11T02:48:20.954Z,96998.23
2022-10-11T02:50:51.318Z,96999.98
2022-10-11T02:53:22.589Z,97001.46
2022-10-11T02:55:54.017Z,96996.35
2022-10-11T02:58:24.611Z,96997.77
2022-10-11T03:00:54.282Z,96997.27
2022-10-11T03:03:23.954Z,96996.62
2022-10-11T03:06:02.126Z,97001.13
2022-10-11T03:08:32.571Z,97003.67
2022-10-11T03:11:02.517Z,97004.39
2022-10-11T03:13:32.540Z,97004.11
2022-10-11T03:16:03.693Z,97006.45
2022-10-11T03:18:33.922Z,97010.41
2022-10-11T03:21:03.944Z,97012.30
2022-10-11T03:23:33.270Z,97011.04
2022-10-11T03:26:03.380Z,97009.31
2022-10-11T03:28:33.344Z,97008.70
2022-10-11T03:31:03.428Z,97005.77
2022-10-11T03:33:34.718Z,97007.61
2022-10-11T03:36:05.126Z,97007.44
2022-10-11T03:38:35.063Z,97006.29
2022-10-11T03:41:04.723Z,97008.52
2022-10-11T03:43:34.864Z,97007.60
2022-10-11T03:46:04.827Z,96999.99
2022-10-11T03:48:34.746Z,97000.30
2022-10-11T03:51:06.034Z,97003.29
2022-10-11T03:53:36.224Z,97001.06
2022-10-11T03:56:08.557Z,96998.59
2022-10-11T03:58:37.601Z,96998.38
2022-10-11T04:01:10.009Z,96994.25
2022-10-11T04:03:38.756Z,96997.89
2022-10-11T04:06:10.446Z,97002.56
2022-10-11T04:08:40.046Z,96999.86
2022-10-11T04:11:09.803Z,96993.77
2022-10-11T04:13:39.075Z,97003.80
2022-10-11T04:16:08.910Z,97003.58
2022-10-11T04:18:38.990Z,97009.48
2022-10-11T04:21:08.235Z,97015.27
2022-10-11T04:23:38.171Z,97012.60
2022-10-11T04:26:08.978Z,97007.50
2022-10-11T04:28:37.570Z,97005.77
2022-10-11T04:31:08.424Z,97012.60
2022-10-11T04:33:38.328Z,97010.92
2022-10-11T04:36:08.689Z,97004.45
2022-10-11T04:38:39.030Z,96998.15
2022-10-11T04:41:13.898Z,96998.69
2022-10-11T04:43:43.717Z,97004.95
2022-10-11T04:46:13.317Z,97013.95
2022-10-11T04:48:43.051Z,97017.41
2022-10-11T04:51:12.929Z,97010.61
2022-10-11T04:53:45.131Z,97012.61
2022-10-11T04:56:17.174Z,97017.07
2022-10-11T04:58:54.661Z,97021.19
2022-10-11T05:01:24.520Z,97019.88
2022-10-11T05:03:54.580Z,97017.16
2022-10-11T05:06:25.429Z,97017.52
2022-10-11T05:08:55.420Z,97016.61
2022-10-11T05:11:25.024Z,97021.81
2022-10-11T05:13:56.994Z,97021.38
2022-10-11T05:16:28.631Z,97024.59
2022-10-11T05:18:58.745Z,97023.77
2022-10-11T05:21:30.185Z,97023.95
2022-10-11T05:23:58.910Z,97028.14
2022-10-11T05:26:29.313Z,97025.49
2022-10-11T05:28:59.519Z,97026.16
2022-10-11T05:31:29.686Z,97023.19
2022-10-11T05:34:00.455Z,97024.33
2022-10-11T05:36:30.080Z,97020.39
2022-10-11T05:39:00.081Z,97025.05
2022-10-11T05:41:30.100Z,97024.40
2022-10-11T05:44:00.119Z,97023.71
2022-10-11T05:46:28.435Z,97030.05
2022-10-11T05:48:59.761Z,97034.23
2022-10-11T05:51:29.734Z,97041.09
2022-10-11T05:53:59.399Z,97040.81
2022-10-11T05:56:27.952Z,97038.16
2022-10-11T05:59:02.162Z,97040.48
2022-10-11T06:01:33.014Z,97043.36
2022-10-11T06:04:03.152Z,97042.30
2022-10-11T06:06:33.673Z,97048.74
2022-10-11T06:09:03.864Z,97043.85
2022-10-11T06:11:33.551Z,97046.52
2022-10-11T06:14:02.995Z,97047.23
2022-10-11T06:16:33.046Z,97045.64
2022-10-11T06:19:03.246Z,97049.23
2022-10-11T06:21:33.182Z,97049.02
2022-10-11T06:24:03.427Z,97047.98
2022-10-11T06:26:33.543Z,97057.16
2022-10-11T06:29:04.097Z,97061.56
2022-10-11T06:31:34.188Z,97062.92
2022-10-11T06:34:04.047Z,97061.83
2022-10-11T06:36:34.033Z,97059.39
2022-10-11T06:39:03.697Z,97058.94
2022-10-11T06:41:33.415Z,97062.19
2022-10-11T06:44:03.502Z,97066.48
2022-10-11T06:46:33.670Z,97066.47
2022-10-11T06:49:03.901Z,97064.95
2022-10-11T06:51:35.700Z,97072.71
2022-10-11T06:54:05.781Z,97064.23
2022-10-11T06:56:36.386Z,97070.25
2022-10-11T06:59:04.858Z,97073.83
2022-10-11T07:01:36.116Z,97074.57
2022-10-11T07:04:05.686Z,97079.77
2022-10-11T07:06:39.080Z,97082.56
2022-10-11T07:09:10.388Z,97082.45
2022-10-11T07:11:40.148Z,97082.42
2022-10-11T07:14:10.624Z,97078.08
2022-10-11T07:16:40.563Z,97080.02
2022-10-11T07:19:10.640Z,97078.30
2022-10-11T07:21:40.419Z,97083.88
2022-10-11T07:24:10.308Z,97083.75
2022-10-11T07:26:40.420Z,97082.74
2022-10-11T07:29:11.159Z,97084.27
2022-10-11T07:31:43.609Z,97078.61
2022-10-11T07:34:13.410Z,97077.77
2022-10-11T07:36:43.378Z,97079.77
2022-10-11T07:39:13.037Z,97075.64
2022-10-11T07:41:45.925Z,97076.23
2022-10-11T07:44:16.286Z,97075.24
2022-10-11T07:46:47.845Z,97076.08
2022-10-11T07:49:18.082Z,97077.39
2022-10-11T07:51:48.083Z,97068.64
2022-10-11T07:54:17.298Z,97067.98
2022-10-11T07:56:47.905Z,97069.88
2022-10-11T07:59:17.819Z,97068.34
2022-10-11T08:01:47.842Z,97070.66
2022-10-11T08:04:17.995Z,97070.20
2022-10-11T08:06:52.469Z,97071.83
2022-10-11T08:09:22.979Z,97073.08
2022-10-11T08:11:55.151Z,97069.08
2022-10-11T08:14:25.357Z,97070.92
2022-10-11T08:16:55.209Z,97076.00
2022-10-11T08:19:25.732Z,97077.59
2022-10-11T08:21:54.303Z,97075.39
2022-10-11T08:24:25.937Z,97077.05
2022-10-11T08:26:56.302Z,97077.09
2022-10-11T08:29:26.802Z,97081.38
2022-10-11T08:31:56.098Z,97079.52
2022-10-11T08:34:25.609Z,97079.85
2022-10-11T08:36:54.899Z,97077.21
2022-10-11T08:39:24.733Z,97075.61
2022-10-11T08:42:00.535Z,97078.20
2022-10-11T08:45:09.068Z,97077.49
2022-10-11T08:47:39.712Z,97076.80
2022-10-11T08:50:17.016Z,97072.77
2022-10-11T08:52:59.932Z,97078.91
2022-10-11T08:55:53.200Z,97081.77
2022-10-11T08:58:31.957Z,97082.46
2022-10-11T09:01:03.166Z,97081.86
2022-10-11T09:03:48.307Z,97079.64
2022-10-11T09:06:43.694Z,97079.24
2022-10-11T09:09:37.157Z,97079.63
2022-10-11T09:12:17.512Z,97082.63
2022-10-11T09:15:10.782Z,97079.45
2022-10-11T09:17:59.881Z,97079.58
2022-10-11T09:20:50.746Z,97081.20
2022-10-11T09:24:05.109Z,97082.29
2022-10-11T09:26:58.268Z,97073.11
2022-10-11T09:29:46.679Z,97077.41
2022-10-11T09:32:21.520Z,97076.20
2022-10-11T09:35:13.386Z,97067.66
2022-10-11T09:38:00.280Z,97067.70
2022-10-11T09:40:55.509Z,97066.20
2022-10-11T09:43:25.494Z,97072.23
2022-10-11T09:45:55.065Z,97073.45
2022-10-11T09:48:31.889Z,97076.06
2022-10-11T09:51:09.533Z,97075.77
2022-10-11T09:54:04.808Z,97071.50
2022-10-11T09:56:42.567Z,97069.35
2022-10-11T09:59:35.520Z,97067.90
2022-10-11T10:02:15.705Z,97064.37
2022-10-11T10:05:11.771Z,97061.86
2022-10-11T10:08:11.624Z,97057.50
2022-10-11T10:10:46.495Z,97051.56
2022-10-11T10:13:29.935Z,97050.27
2022-10-11T10:16:00.075Z,97044.21
2022-10-11T10:18:39.561Z,97044.60
2022-10-11T10:21:14.800Z,97043.55
2022-10-11T10:23:45.277Z,97041.55
2022-10-11T10:26:19.600Z,97038.77
2022-10-11T10:28:55.736Z,97036.45
2022-10-11T10:31:54.994Z,97032.48
2022-10-11T10:34:38.888Z,97028.86
2022-10-11T10:37:34.208Z,97026.51
2022-10-11T10:40:19.004Z,97026.20
2022-10-11T10:42:49.277Z,97022.00
2022-10-11T10:45:21.954Z,97016.59
2022-10-11T10:48:19.147Z,97012.04
2022-10-11T10:50:55.160Z,97010.46
2022-10-11T10:53:39.814Z,97005.60
2022-10-11T10:56:19.534Z,97003.86
2022-10-11T10:59:07.845Z,97001.58
2022-10-11T11:01:55.755Z,96998.42
2022-10-11T11:04:33.121Z,96997.44
2022-10-11T11:07:24.755Z,96992.91
2022-10-11T11:10:07.433Z,96992.09
2022-10-11T11:12:51.319Z,96992.42
2022-10-11T11:15:33.093Z,96992.27
2022-10-11T11:18:28.908Z,96993.23
2022-10-11T11:21:13.439Z,96992.45
2022-10-11T11:24:14.448Z,96992.95
2022-10-11T11:26:51.342Z,96995.31
2022-10-11T11:29:50.794Z,96991.55
2022-10-11T11:32:53.597Z,96991.98
2022-10-11T11:35:41.919Z,96989.20
2022-10-11T11:38:41.027Z,96987.65
2022-10-11T11:41:44.911Z,96985.88
2022-10-11T11:44:31.465Z,96982.95
2022-10-11T11:47:05.430Z,96976.20
2022-10-11T11:49:48.862Z,96976.25
2022-10-11T11:52:27.171Z,96976.63
2022-10-11T11:55:11.786Z,96974.34
2022-10-11T11:58:07.401Z,96971.69
2022-10-11T12:00:53.151Z,96966.08
2022-10-11T12:03:31.025Z,96964.67
2022-10-11T12:06:47.900Z,96966.64
2022-10-11T12:09:23.425Z,96957.50
2022-10-11T12:12:01.863Z,96962.38
2022-10-11T12:14:34.846Z,96962.57
2022-10-11T12:17:11.450Z,96963.05
2022-10-11T12:20:00.489Z,96963.16
2022-10-11T12:22:30.553Z,96963.63
2022-10-11T12:25:14.956Z,96957.17
2022-10-11T12:27:53.287Z,96955.96
2022-10-11T12:30:47.310Z,96956.29
2022-10-11T12:33:23.691Z,96957.39
2022-10-11T12:35:55.212Z,96954.83
2022-10-11T12:38:29.314Z,96959.11
2022-10-11T12:41:38.340Z,96958.39
2022-10-11T12:44:20.643Z,96957.63
2022-10-11T12:46:55.744Z,96955.98
2022-10-11T12:50:01.999Z,96952.06
2022-10-11T12:53:02.619Z,96949.29
2022-10-11T12:56:06.865Z,96947.84
2022-10-11T12:58:42.035Z,96947.21
2022-10-11T13:01:23.078Z,96945.52
2022-10-11T13:04:08.484Z,96941.42
2022-10-11T13:06:57.862Z,96943.08
2022-10-11T13:09:32.494Z,96942.34
2022-10-11T13:12:06.853Z,96938.48
2022-10-11T13:15:07.253Z,96936.27
2022-10-11T13:17:39.549Z,96937.30
2022-10-11T13:20:21.031Z,96937.66
2022-10-11T13:22:54.094Z,96938.29
2022-10-11T13:25:38.124Z,96937.42
2022-10-11T13:28:09.880Z,96935.97
2022-10-11T13:30:45.748Z,96933.40
2022-10-11T13:33:35.656Z,96932.52
2022-10-11T13:36:09.839Z,96931.54
2022-10-11T13:38:41.046Z,96929.84
2022-10-11T13:41:11.193Z,96932.19
2022-10-11T13:43:41.644Z,96930.91
2022-10-11T13:46:19.962Z,96930.61
2022-10-11T13:49:02.929Z,96930.90
2022-10-11T13:51:37.352Z,96926.75
2022-10-11T13:54:13.568Z,96925.17
2022-10-11T13:56:50.085Z,96926.78
2022-10-11T13:59:25.250Z,96926.45
2022-10-11T14:02:01.506Z,96925.70
2022-10-11T14:04:42.849Z,96930.56
2022-10-11T14:07:34.136Z,96926.03
2022-10-11T14:10:05.753Z,96929.85
2022-10-11T14:12:40.785Z,96929.58
2022-10-11T14:15:33.474Z,96932.36
2022-10-11T14:18:23.904Z,96933.27
2022-10-11T14:20:53.619Z,96933.13
2022-10-11T14:23:23.553Z,96935.53
2022-10-11T14:25:53.715Z,96933.94
2022-10-11T14:28:23.698Z,96932.09
2022-10-11T14:30:52.194Z,96927.93
2022-10-11T14:33:25.144Z,96928.93
2022-10-11T14:35:56.069Z,96927.39
2022-10-11T14:38:26.002Z,96929.35
2022-10-11T14:40:54.985Z,96930.34
2022-10-11T14:43:25.134Z,96927.02
2022-10-11T14:45:57.860Z,96923.92
2022-10-11T14:48:53.556Z,96925.97
2022-10-11T14:51:29.461Z,96921.52
2022-10-11T14:54:01.609Z,96926.36
2022-10-11T14:56:31.394Z,96930.21
2022-10-11T14:59:00.953Z,96931.77
2022-10-11T15:01:31.059Z,96930.42
2022-10-11T15:04:02.144Z,96927.93
2022-10-11T15:06:37.196Z,96930.20
2022-10-11T15:09:07.725Z,96930.66
2022-10-11T15:11:39.037Z,96930.45
2022-10-11T15:14:08.869Z,96938.43
2022-10-11T15:16:40.631Z,96935.83
2022-10-11T15:19:19.895Z,96940.75
2022-10-11T15:21:53.079Z,96939.52
2022-10-11T15:24:22.925Z,96944.86
2022-10-11T15:26:53.136Z,96947.04
2022-10-11T15:29:24.568Z,96948.48
2022-10-11T15:31:54.636Z,96951.29
2022-10-11T15:34:24.656Z,96954.80
2022-10-11T15:36:54.190Z,96958.46
2022-10-11T15:39:26.452Z,96962.47
2022-10-11T15:42:01.260Z,96961.52
2022-10-11T15:44:30.828Z,96969.85
2022-10-11T15:47:00.380Z,96971.09
2022-10-11T15:49:29.212Z,96972.37
2022-10-11T15:51:58.827Z,96973.77
2022-10-11T15:54:31.775Z,96977.96
2022-10-11T15:57:01.597Z,96981.48
2022-10-11T15:59:31.237Z,96987.80
2022-10-11T16:02:03.748Z,96986.45
2022-10-11T16:04:33.593Z,96991.27
2022-10-11T16:07:03.273Z,96987.98
2022-10-11T16:09:33.146Z,96988.67
2022-10-11T16:12:04.580Z,96990.23
2022-10-11T16:14:34.308Z,96994.60
2022-10-11T16:17:05.965Z,96997.70
2022-10-11T16:19:35.175Z,97001.58
2022-10-11T16:22:04.957Z,97004.38
2022-10-11T16:24:35.123Z,97008.28
2022-10-11T16:27:09.097Z,97005.21
2022-10-11T16:29:39.133Z,97007.19
2022-10-11T16:32:10.706Z,97012.48
2022-10-11T16:34:40.785Z,97013.79
2022-10-11T16:37:12.392Z,97012.02
2022-10-11T16:39:44.497Z,97014.79
2022-10-11T16:42:14.553Z,97016.64
2022-10-11T16:44:44.959Z,97019.73
2022-10-11T16:47:16.175Z,97022.56
2022-10-11T16:49:46.541Z,97021.08
2022-10-11T16:52:18.363Z,97024.77
2022-10-11T16:54:49.557Z,97026.31
2022-10-11T16:57:20.350Z,97028.34
2022-10-11T16:59:50.523Z,97028.48
2022-10-11T17:02:29.898Z,97026.42
2022-10-11T17:05:03.968Z,97028.95
2022-10-11T17:07:34.059Z,97032.33
2022-10-11T17:10:07.644Z,97028.17
2022-10-11T17:12:38.938Z,97033.48
2022-10-11T17:15:11.369Z,97028.65
2022-10-11T17:17:43.993Z,97032.65
2022-10-11T17:20:16.342Z,97037.59
2022-10-11T17:22:45.426Z,97033.89
2022-10-11T17:25:15.421Z,97033.23
2022-10-11T17:27:44.954Z,97035.54
2022-10-11T17:30:15.932Z,97040.48
2022-10-11T17:32:47.045Z,97044.36
2022-10-11T17:35:18.570Z,97044.59
2022-10-11T17:37:50.154Z,97045.27
2022-10-11T17:40:23.694Z,97047.25
2022-10-11T17:42:55.656Z,97054.17
2022-10-11T17:45:25.572Z,97051.79
2022-10-11T17:47:55.941Z,97050.38
2022-10-11T17:50:25.314Z,97048.05
2022-10-11T17:52:54.942Z,97049.23
2022-10-11T17:55:24.572Z,97048.94
2022-10-11T17:57:53.716Z,97045.40
2022-10-11T18:00:23.396Z,97039.73
2022-10-11T18:02:54.015Z,97042.23
2022-10-11T18:05:27.216Z,97038.88
2022-10-11T18:07:56.899Z,97041.02
2022-10-11T18:10:27.571Z,97041.84
2022-10-11T18:12:57.591Z,97040.73
2022-10-11T18:15:30.684Z,97038.07
2022-10-11T18:18:00.287Z,97045.16
2022-10-11T18:20:29.903Z,97046.55
2022-10-11T18:23:00.675Z,97045.23
2022-10-11T18:25:33.913Z,97047.02
2022-10-11T18:28:03.689Z,97049.52
2022-10-11T18:30:33.325Z,97047.15
2022-10-11T18:33:03.073Z,97047.32
2022-10-11T18:35:32.729Z,97048.33
2022-10-11T18:38:02.439Z,97052.11
2022-10-11T18:40:32.481Z,97044.84
2022-10-11T18:43:02.248Z,97040.00
2022-10-11T18:45:31.876Z,97040.11
2022-10-11T18:48:01.855Z,97041.04
2022-10-11T18:50:35.530Z,97041.30
2022-10-11T18:55:40.893Z,97041.25
2022-10-11T18:58:10.875Z,97036.77
2022-10-11T19:00:41.516Z,97038.73
2022-10-11T19:03:11.511Z,97035.70
2022-10-11T19:05:40.707Z,97038.07
2022-10-11T19:08:10.243Z,97036.98
2022-10-11T19:10:40.339Z,97042.80
2022-10-11T19:13:08.793Z,97043.34
2022-10-11T19:15:38.705Z,97046.35
2022-10-11T19:18:09.517Z,97045.52
2022-10-11T19:20:39.855Z,97048.31
2022-10-11T19:23:11.914Z,97049.09
2022-10-11T19:25:42.033Z,97048.53
2022-10-11T19:28:15.616Z,97051.75
2022-10-11T19:30:46.345Z,97055.98
2022-10-11T19:33:15.698Z,97053.98
2022-10-11T19:35:55.984Z,97057.45
2022-10-11T19:38:25.892Z,97060.52
2022-10-11T19:40:55.744Z,97061.20
2022-10-11T19:43:24.746Z,97062.29
2022-10-11T19:46:05.179Z,97062.65
2022-10-11T19:48:38.452Z,97066.20
2022-10-11T19:51:22.862Z,97068.19
2022-10-11T19:53:59.753Z,97068.35
2022-10-11T19:56:31.652Z,97069.47
2022-10-11T19:59:02.905Z,97067.91
2022-10-11T20:01:31.811Z,97069.58
2022-10-11T20:04:04.319Z,97071.02
2022-10-11T20:06:38.470Z,97072.44
2022-10-11T20:09:29.391Z,97075.38
2022-10-11T20:12:00.187Z,97071.73
2022-10-11T20:14:29.933Z,97071.27
2022-10-11T20:16:59.574Z,97067.51
2022-10-11T20:19:31.755Z,97074.42
2022-10-11T20:22:02.537Z,97070.71
2022-10-11T20:24:34.694Z,97070.78
2022-10-11T20:27:05.748Z,97068.35
2022-10-11T20:29:35.860Z,97068.66
2022-10-11T20:32:05.540Z,97068.55
2022-10-11T20:34:40.326Z,97067.19
2022-10-11T20:37:10.089Z,97065.98
2022-10-11T20:39:39.710Z,97064.70
2022-10-11T20:42:09.384Z,97065.86
2022-10-11T20:44:38.954Z,97067.77
2022-10-11T20:47:09.006Z,97063.83
2022-10-11T20:49:38.694Z,97066.91
2022-10-11T20:52:07.318Z,97066.96
2022-10-11T20:54:36.557Z,97068.19
2022-10-11T20:57:06.369Z,97069.55
2022-10-11T20:59:36.087Z,97068.05
2022-10-11T21:02:06.090Z,97068.48
2022-10-11T21:04:36.312Z,97064.38
2022-10-11T21:07:07.259Z,97061.63
2022-10-11T21:09:36.574Z,97061.63
2022-10-11T21:12:06.683Z,97062.14
2022-10-11T21:14:36.243Z,97060.74
2022-10-11T21:17:05.928Z,97063.55
2022-10-11T21:19:35.688Z,97069.25
2022-10-11T21:22:06.573Z,97066.95
2022-10-11T21:24:36.443Z,97063.63
2022-10-11T21:27:06.152Z,97067.95
2022-10-11T21:29:35.703Z,97066.97
2022-10-11T21:32:05.291Z,97064.33
2022-10-11T21:34:35.066Z,97063.27
2022-10-11T21:37:04.772Z,97067.44
2022-10-11T21:39:34.830Z,97069.02
2022-10-11T21:42:04.979Z,97071.98
2022-10-11T21:44:36.738Z,97075.17
2022-10-11T21:47:07.574Z,97070.90
2022-10-11T21:49:37.530Z,97073.29
2022-10-11T21:52:07.161Z,97074.94
2022-10-11T21:54:36.156Z,97075.02
2022-10-11T21:57:06.595Z,97075.48
2022-10-11T21:59:36.262Z,97075.42
2022-10-11T22:02:06.204Z,97074.59
2022-10-11T22:04:36.346Z,97070.63
2022-10-11T22:07:06.524Z,97073.59
2022-10-11T22:09:37.059Z,97074.56
2022-10-11T22:12:07.576Z,97077.73
2022-10-11T22:14:38.020Z,97076.84
2022-10-11T22:17:08.063Z,97075.16
2022-10-11T22:19:38.142Z,97070.92
2022-10-11T22:22:08.037Z,97077.33
2022-10-11T22:24:37.865Z,97077.06
2022-10-11T22:27:08.340Z,97076.11
2022-10-11T22:29:38.220Z,97076.14
2022-10-11T22:32:08.071Z,97079.13
2022-10-11T22:34:38.142Z,97081.37
2022-10-11T22:37:08.129Z,97081.92
2022-10-11T22:39:37.375Z,97083.50
2022-10-11T22:42:07.373Z,97083.88
2022-10-11T22:44:37.028Z,97085.69
2022-10-11T22:47:07.101Z,97085.52
2022-10-11T22:49:36.482Z,97083.23
2022-10-11T22:52:07.085Z,97082.77
2022-10-11T22:54:36.672Z,97087.41
2022-10-11T22:57:05.405Z,97089.13
2022-10-11T22:59:35.433Z,97085.08
2022-10-11T23:02:05.786Z,97087.05
2022-10-11T23:04:35.877Z,97087.73
2022-10-11T23:07:06.212Z,97088.88
2022-10-11T23:09:36.261Z,97088.52
2022-10-11T23:12:06.614Z,97089.70
2022-10-11T23:14:36.761Z,97089.11
2022-10-11T23:17:06.440Z,97091.80
2022-10-11T23:19:37.549Z,97087.68
2022-10-11T23:22:07.783Z,97086.29
2022-10-11T23:24:37.462Z,97090.13
2022-10-11T23:27:07.745Z,97091.23
2022-10-11T23:29:41.977Z,97088.94
2022-10-11T23:32:12.544Z,97086.23
2022-10-11T23:34:42.587Z,97086.50
2022-10-11T23:37:12.419Z,97088.55
2022-10-11T23:39:42.774Z,97090.90
2022-10-11T23:42:12.699Z,97087.13
2022-10-11T23:44:42.438Z,97090.29
2022-10-11T23:47:13.489Z,97086.14
2022-10-11T23:49:43.431Z,97089.86
2022-10-11T23:52:13.172Z,97087.32
2022-10-11T23:54:43.012Z,97085.73
2022-10-11T23:57:12.977Z,97082.54
2022-10-11T23:59:42.921Z,97083.45
